Time;durP1;ratioP1;P1;durP2;ratioP2;P2;SDS_P1;SDS_P2;PMS_P1;PMS_P2;Temp;Humidity;BMP_temperature;BMP_pressure;BME280_temperature;BME280_humidity;BME280_pressure;Samples;Min_cycle;Max_cycle;Signal;HPM_P1;HPM_P2
2022/07/08 00:00:06;;;;;;;10.95;1.48;;;14.10;99.90;;;13.36;100.00;98708.78;5003948;28;20053;-65
2022/07/08 00:02:33;;;;;;;7.03;1.30;;;14.00;99.90;;;13.29;100.00;98714.25;5023119;28;20470;-65
2022/07/08 00:05:00;;;;;;;11.73;1.65;;;14.00;99.90;;;13.25;100.00;98712.63;5006407;28;20055;-65
2022/07/08 00:07:27;;;;;;;8.40;1.60;;;14.00;99.90;;;13.44;100.00;98713.72;5022353;28;20104;-65
2022/07/08 00:09:54;;;;;;;10.25;1.23;;;13.90;99.90;;;13.39;100.00;98711.28;5025067;28;20073;-65
2022/07/08 00:12:21;;;;;;;10.60;1.80;;;13.90;99.90;;;13.34;100.00;98712.34;5022357;28;20447;-65
2022/07/08 00:14:48;;;;;;;7.15;1.00;;;13.90;99.90;;;13.28;100.00;98713.41;5023519;28;20064;-65
2022/07/08 00:17:15;;;;;;;14.10;1.30;;;13.90;99.90;;;13.18;100.00;98712.00;5020768;28;20049;-64
2022/07/08 00:19:43;;;;;;;13.30;1.50;;;13.80;99.90;;;13.14;100.00;98710.41;5006508;28;20166;-64
2022/07/08 00:22:10;;;;;;;8.48;1.75;;;13.80;99.90;;;13.10;100.00;98714.03;5023931;28;20113;-65
2022/07/08 00:24:39;;;;;;;7.13;1.02;;;13.70;99.90;;;13.07;100.00;98707.19;5021487;28;20135;-65
2022/07/08 00:27:06;;;;;;;8.73;1.40;;;13.70;99.90;;;12.99;100.00;98717.00;5024123;28;20505;-64
2022/07/08 00:29:33;;;;;;;7.00;1.23;;;13.60;99.90;;;13.02;100.00;98721.25;5022792;28;20053;-64
2022/07/08 00:32:00;;;;;;;8.88;1.25;;;13.60;99.90;;;13.01;100.00;98730.00;5022297;28;20068;-64
2022/07/08 00:34:27;;;;;;;8.52;1.30;;;13.60;99.90;;;13.03;100.00;98725.56;5023183;28;20132;-65
2022/07/08 00:36:54;;;;;;;13.50;1.42;;;13.60;99.90;;;12.95;100.00;98729.31;5023565;28;20131;-64
2022/07/08 00:39:21;;;;;;;12.20;1.83;;;13.60;99.90;;;12.93;100.00;98730.22;5021522;28;20045;-65
2022/07/08 00:41:48;;;;;;;14.05;1.83;;;13.50;99.90;;;12.87;100.00;98722.63;5020940;28;20064;-65
2022/07/08 00:44:15;;;;;;;11.32;1.40;;;13.50;99.90;;;12.85;100.00;98729.66;5018027;28;20277;-64
2022/07/08 00:46:42;;;;;;;9.35;1.23;;;13.50;99.90;;;12.85;100.00;98729.66;5021665;28;21065;-65
2022/07/08 00:49:08;;;;;;;7.45;1.35;;;13.40;99.90;;;12.82;100.00;98735.81;5022033;28;20059;-64
2022/07/08 00:51:39;;;;;;;5.60;1.30;;;13.40;99.90;;;12.71;100.00;98737.91;5021654;28;20136;-64
2022/07/08 00:54:06;;;;;;;12.30;2.13;;;13.40;99.90;;;12.55;100.00;98734.97;5023398;28;20136;-65
2022/07/08 00:56:34;;;;;;;11.20;1.52;;;13.30;99.90;;;12.31;100.00;98740.03;5020213;28;20049;-63
2022/07/08 00:59:01;;;;;;;11.20;2.00;;;13.10;99.90;;;12.05;100.00;98745.19;5021186;28;20041;-63
2022/07/08 01:01:28;;;;;;;10.52;1.55;;;12.90;99.90;;;11.91;100.00;98746.44;5023250;28;20140;-63
2022/07/08 01:03:55;;;;;;;8.52;1.55;;;12.80;99.90;;;11.95;100.00;98743.75;5024868;28;20142;-63
2022/07/08 01:06:22;;;;;;;13.25;1.50;;;12.70;99.90;;;11.90;100.00;98749.09;5023840;28;20042;-62
2022/07/08 01:08:49;;;;;;;8.38;1.55;;;12.70;99.90;;;11.87;100.00;98744.81;5024363;28;20140;-63
2022/07/08 01:11:16;;;;;;;8.55;1.30;;;12.60;99.90;;;11.87;100.00;98744.81;5023475;28;20080;-62
2022/07/08 01:13:43;;;;;;;11.25;1.73;;;12.60;99.90;;;11.98;100.00;98731.50;5022405;28;20445;-62
2022/07/08 01:16:10;;;;;;;11.00;2.13;;;12.60;99.90;;;11.95;100.00;98728.13;5021945;28;20063;-63
2022/07/08 01:18:40;;;;;;;10.90;1.52;;;12.60;99.90;;;12.03;100.00;98741.78;5021760;28;21165;-63
2022/07/08 01:21:08;;;;;;;10.60;1.63;;;12.70;99.90;;;12.07;100.00;98740.78;5023331;28;20046;-63
2022/07/08 01:23:35;;;;;;;9.48;1.42;;;12.70;99.90;;;12.16;100.00;98739.63;5005625;28;20137;-62
2022/07/08 01:26:10;;;;;;;5.60;1.00;;;12.70;99.90;;;12.17;100.00;98730.94;5006437;28;20144;-63
2022/07/08 01:28:41;;;;;;;10.55;1.30;;;12.80;99.90;;;12.19;100.00;98734.38;5021400;28;20050;-63
2022/07/08 01:31:08;;;;;;;9.95;1.67;;;12.90;99.90;;;12.16;100.00;98731.84;5023161;28;20144;-64
2022/07/08 01:33:35;;;;;;;11.90;1.63;;;12.80;99.90;;;12.20;100.00;98742.13;5023660;28;20057;-62
2022/07/08 01:36:03;;;;;;;6.57;1.17;;;12.80;99.90;;;12.16;100.00;98737.03;5019999;28;20160;-62
2022/07/08 01:38:30;;;;;;;15.55;2.67;;;12.80;99.90;;;12.24;100.00;98735.91;5023590;28;20088;-62
2022/07/08 01:40:58;;;;;;;8.07;1.75;;;12.90;99.90;;;12.19;100.00;98737.81;5006743;28;20520;-63
2022/07/08 01:43:25;;;;;;;8.57;1.60;;;12.90;99.90;;;12.19;100.00;98742.16;5003255;28;20437;-63
2022/07/08 01:45:52;;;;;;;8.45;1.38;;;12.90;99.90;;;12.19;100.00;98727.41;5020249;28;20792;-63
2022/07/08 01:48:19;;;;;;;10.38;1.70;;;12.80;99.90;;;12.12;100.00;98731.94;5020643;28;20060;-63
2022/07/08 01:50:46;;;;;;;14.13;1.67;;;12.80;99.90;;;12.12;100.00;98734.53;5022716;28;20489;-62
2022/07/08 01:53:13;;;;;;;16.35;1.60;;;12.80;99.90;;;12.17;100.00;98751.78;5023352;28;20088;-62
2022/07/08 01:55:41;;;;;;;9.82;1.73;;;12.80;99.90;;;12.18;100.00;98759.53;5024945;28;20124;-63
2022/07/08 01:58:08;;;;;;;23.33;1.98;;;12.90;99.90;;;12.22;100.00;98768.09;5004860;28;20052;-63
2022/07/08 02:00:35;;;;;;;10.07;1.40;;;12.90;99.90;;;12.28;100.00;98766.16;5024406;28;20041;-63
2022/07/08 02:03:02;;;;;;;7.70;1.23;;;12.90;99.90;;;12.19;100.00;98760.38;5026328;28;20045;-63
2022/07/08 02:05:32;;;;;;;17.90;1.88;;;12.90;99.90;;;12.10;100.00;98762.34;5025632;28;20042;-62
2022/07/08 02:08:02;;;;;;;11.05;1.33;;;12.80;99.90;;;11.95;100.00;98760.22;5025413;28;20092;-62
2022/07/08 02:12:18;;;;;;;12.35;1.65;;;12.80;99.90;;;11.97;100.00;98758.41;5023775;28;20053;-63
2022/07/08 02:13:18;;;;;;;11.38;1.35;;;12.70;99.90;;;11.87;100.00;98764.75;5025906;28;20141;-63
2022/07/08 02:15:46;;;;;;;13.57;1.52;;;12.60;99.90;;;11.77;100.00;98766.78;5024288;28;20071;-62
2022/07/08 02:18:13;;;;;;;9.77;1.58;;;12.50;99.90;;;11.75;100.00;98763.38;5009491;28;20587;-63
2022/07/08 02:20:40;;;;;;;10.77;1.73;;;12.50;99.90;;;11.74;100.00;98766.84;5024449;28;20509;-62
2022/07/08 02:23:07;;;;;;;16.60;1.67;;;12.40;99.90;;;11.64;100.00;98763.66;5023502;28;20128;-63
2022/07/08 02:25:34;;;;;;;8.18;1.40;;;12.40;99.90;;;11.72;100.00;98761.72;5024445;28;20464;-62
2022/07/08 02:28:04;;;;;;;10.25;1.38;;;12.40;99.90;;;11.73;100.00;98766.00;5010050;28;20107;-61
2022/07/08 02:30:31;;;;;;;23.98;1.92;;;12.40;99.90;;;11.75;100.00;98765.13;5026870;28;20134;-62
2022/07/08 02:32:58;;;;;;;12.80;1.83;;;12.40;99.90;;;11.77;100.00;98763.31;5023889;28;20050;-62
2022/07/08 02:35:27;;;;;;;9.25;1.65;;;12.40;99.90;;;11.75;100.00;98763.38;5024470;28;20045;-60
2022/07/08 02:37:55;;;;;;;8.25;1.38;;;12.50;99.90;;;11.76;100.00;98764.22;5023564;28;20054;-63
2022/07/08 02:40:21;;;;;;;10.45;1.25;;;12.50;99.90;;;11.62;100.00;98768.03;5027748;28;20045;-63
2022/07/08 02:42:48;;;;;;;9.88;1.77;;;12.40;99.90;;;11.62;100.00;98762.00;5012593;28;20133;-62
2022/07/08 02:45:15;;;;;;;8.45;1.50;;;12.30;99.90;;;11.54;100.00;98771.75;5024388;28;20061;-61
2022/07/08 02:47:42;;;;;;;8.93;1.58;;;12.30;99.90;;;11.33;100.00;98775.78;5024427;28;20049;-64
2022/07/08 02:50:09;;;;;;;8.50;1.30;;;12.20;99.90;;;11.43;100.00;98772.06;5025695;28;20132;-62
2022/07/08 02:52:36;;;;;;;6.55;1.10;;;12.10;99.90;;;11.01;100.00;98791.31;5025416;28;20053;-62
2022/07/08 02:55:04;;;;;;;4.32;1.13;;;12.00;99.90;;;11.02;100.00;98786.97;5023820;28;20183;-61
2022/07/08 02:57:31;;;;;;;7.45;1.38;;;11.80;99.90;;;11.03;100.00;98786.91;5024867;28;20466;-63
2022/07/08 02:59:58;;;;;;;9.73;1.20;;;11.80;99.90;;;11.18;100.00;98779.66;5023352;28;20206;-61
2022/07/08 03:02:25;;;;;;;5.57;1.15;;;11.80;99.90;;;11.25;100.00;98778.59;5007416;28;20063;-63
2022/07/08 03:04:53;;;;;;;5.75;1.42;;;11.90;99.90;;;11.25;100.00;98771.66;5026131;28;20128;-63
2022/07/08 03:07:21;;;;;;;6.13;1.13;;;11.90;99.90;;;11.98;100.00;98780.94;5022941;28;20053;-62
2022/07/08 03:09:48;;;;;;;11.77;1.63;;;11.90;99.90;;;11.30;100.00;98787.97;5025452;28;20081;-62
2022/07/08 03:12:15;;;;;;;5.35;1.10;;;11.80;99.90;;;10.77;100.00;98790.16;5023327;28;20055;-63
2022/07/08 03:14:42;;;;;;;7.18;1.40;;;11.80;99.90;;;10.71;100.00;98794.66;5025155;28;20080;-63
2022/07/08 03:17:09;;;;;;;7.65;1.25;;;11.60;99.90;;;10.63;100.00;98795.69;5022565;28;20174;-63
2022/07/08 03:19:36;;;;;;;10.05;1.30;;;11.50;99.90;;;10.62;100.00;98801.75;5026243;28;20931;-62
2022/07/08 03:22:04;;;;;;;8.13;1.45;;;11.40;99.90;;;10.62;100.00;98804.34;5023899;28;20140;-63
2022/07/08 03:24:31;;;;;;;6.65;1.50;;;11.40;99.90;;;10.73;100.00;98806.72;5006931;28;20046;-62
2022/07/08 03:26:59;;;;;;;11.30;1.65;;;11.50;99.90;;;10.90;100.00;98811.50;5005973;28;20531;-62
2022/07/08 03:29:26;;;;;;;8.48;1.30;;;11.60;99.90;;;10.80;100.00;98810.03;5007537;28;20049;-63
2022/07/08 03:31:53;;;;;;;9.02;1.33;;;11.60;99.90;;;10.60;100.00;98808.72;5023955;28;20057;-62
2022/07/08 03:34:20;;;;;;;14.70;1.63;;;11.50;99.90;;;10.50;100.00;98809.84;5023954;28;20152;-63
2022/07/08 03:36:47;;;;;;;9.23;1.48;;;11.40;99.90;;;10.36;100.00;98810.16;5022885;28;20159;-64
2022/07/08 03:39:19;;;;;;;7.85;1.70;;;11.30;99.90;;;10.19;100.00;98807.03;5023773;28;20499;-62
2022/07/08 03:41:46;;;;;;;7.43;1.40;;;11.10;99.90;;;10.44;100.00;98823.78;5024309;28;20067;-62
2022/07/08 03:44:13;;;;;;;9.10;1.23;;;11.20;99.90;;;10.62;100.00;98821.69;5022927;28;20050;-62
2022/07/08 03:46:40;;;;;;;9.30;1.20;;;11.30;99.90;;;10.80;100.00;98804.81;5026667;28;20174;-62
2022/07/08 03:49:07;;;;;;;11.30;1.30;;;11.40;99.90;;;10.42;100.00;98806.56;5022619;28;20061;-62
2022/07/08 03:51:34;;;;;;;8.30;1.30;;;11.40;99.90;;;10.48;100.00;98811.63;5020343;28;20041;-62
2022/07/08 03:54:01;;;;;;;7.60;1.35;;;11.40;99.90;;;10.40;100.00;98823.91;5023167;28;20884;-62
2022/07/08 03:56:28;;;;;;;7.50;1.17;;;11.30;99.90;;;10.45;100.00;98832.47;5024861;28;20050;-62
2022/07/08 03:58:56;;;;;;;7.53;1.55;;;11.30;99.90;;;10.61;100.00;98831.22;5024976;28;20071;-64
2022/07/08 04:01:23;;;;;;;6.40;1.30;;;11.30;99.90;;;10.55;100.00;98833.09;5023789;28;20156;-62
2022/07/08 04:03:50;;;;;;;5.68;1.27;;;11.30;99.90;;;10.78;100.00;98825.63;5022389;28;20242;-63
2022/07/08 04:06:17;;;;;;;7.03;1.35;;;11.30;99.90;;;10.61;100.00;98835.56;5022966;28;20520;-62
2022/07/08 04:08:44;;;;;;;5.32;1.10;;;11.40;99.90;;;10.55;100.00;98839.13;5021764;28;20461;-62
2022/07/08 04:11:11;;;;;;;7.82;1.20;;;11.30;99.90;;;10.57;100.00;98834.78;5023135;28;22095;-62
2022/07/08 04:13:39;;;;;;;9.27;1.30;;;11.30;99.90;;;10.73;100.00;98837.03;5025215;28;20087;-62
2022/07/08 04:16:12;;;;;;;5.88;1.10;;;11.30;99.90;;;10.38;100.00;98831.75;4992179;28;20052;-62
2022/07/08 04:18:40;;;;;;;7.80;1.60;;;11.40;99.90;;;10.33;100.00;98832.72;5007820;28;20045;-62
2022/07/08 04:21:08;;;;;;;6.07;1.30;;;11.40;99.90;;;10.35;100.00;98833.53;5022824;28;20123;-63
2022/07/08 04:23:35;;;;;;;8.02;1.55;;;11.30;99.90;;;10.48;100.00;98829.78;5021946;28;21474;-62
2022/07/08 04:26:03;;;;;;;5.63;1.20;;;11.30;99.90;;;10.80;100.00;98836.84;5022059;28;20052;-64
2022/07/08 04:28:30;;;;;;;7.60;1.33;;;11.40;99.90;;;10.65;100.00;98838.06;5022979;28;20056;-63
2022/07/08 04:30:57;;;;;;;8.63;1.70;;;11.50;99.90;;;10.63;100.00;98842.44;5022212;28;20188;-62
2022/07/08 04:33:24;;;;;;;5.15;1.52;;;11.50;99.90;;;10.56;100.00;98842.59;5020499;28;20140;-62
2022/07/08 04:35:52;;;;;;;8.75;1.48;;;11.60;99.90;;;10.52;100.00;98840.97;5018821;28;20068;-62
2022/07/08 04:38:19;;;;;;;6.38;1.27;;;11.50;99.90;;;10.77;100.00;98847.31;5005743;28;20053;-61
2022/07/08 04:40:46;;;;;;;6.60;1.42;;;11.60;99.90;;;10.69;100.00;98859.59;5024283;28;20045;-63
2022/07/08 04:43:13;;;;;;;5.72;1.27;;;11.70;99.90;;;10.81;100.00;98864.53;5025163;28;20144;-63
2022/07/08 04:45:47;;;;;;;6.05;1.35;;;11.80;99.90;;;10.81;100.00;98863.66;5022576;28;20069;-62
2022/07/08 04:48:14;;;;;;;5.95;1.35;;;11.80;99.90;;;10.80;100.00;98857.63;5023251;28;20046;-63
2022/07/08 04:50:41;;;;;;;12.93;2.50;;;11.80;99.90;;;10.96;100.00;98859.88;5020770;28;20140;-63
2022/07/08 04:53:08;;;;;;;13.10;2.08;;;11.90;99.90;;;10.98;100.00;98868.47;5023202;28;20060;-61
2022/07/08 04:55:35;;;;;;;9.15;1.40;;;11.90;99.90;;;11.25;100.00;98869.56;5023494;28;20428;-64
2022/07/08 04:58:05;;;;;;;9.57;1.52;;;12.00;99.90;;;11.23;100.00;98868.75;5023068;28;20132;-63
2022/07/08 05:00:33;;;;;;;7.90;1.58;;;12.10;99.90;;;11.24;100.00;98868.72;5003996;28;20056;-62
2022/07/08 05:03:01;;;;;;;6.13;1.20;;;12.10;99.90;;;11.28;100.00;98878.13;5007318;28;20049;-62
2022/07/08 05:05:30;;;;;;;5.90;1.23;;;12.20;99.90;;;11.47;100.00;98883.75;5021905;28;20041;-61
2022/07/08 05:07:58;;;;;;;5.65;1.23;;;12.30;99.90;;;11.66;100.00;98889.31;5024073;28;20049;-64
2022/07/08 05:10:25;;;;;;;7.75;1.27;;;12.40;99.90;;;11.79;100.00;98888.97;5008100;28;20089;-62
2022/07/08 05:12:54;;;;;;;5.57;1.10;;;12.60;99.90;;;11.91;100.00;98883.50;5025214;28;20057;-64
2022/07/08 05:15:21;;;;;;;7.18;1.20;;;12.70;99.90;;;11.93;100.00;98882.56;5004578;28;20160;-64
2022/07/08 05:17:48;;;;;;;8.32;1.52;;;12.90;99.90;;;12.03;100.00;98884.91;5022742;28;20124;-64
2022/07/08 05:20:16;;;;;;;11.27;1.60;;;13.00;99.90;;;12.18;100.00;98888.81;5021122;28;20141;-63
2022/07/08 05:22:43;;;;;;;8.57;2.10;;;13.10;99.90;;;12.37;100.00;98879.59;5022936;28;20144;-64
2022/07/08 05:25:10;;;;;;;10.15;1.30;;;13.30;99.90;;;12.59;100.00;98882.44;5021191;28;20676;-64
2022/07/08 05:27:38;;;;;;;6.28;1.23;;;13.50;99.90;;;12.81;100.00;98879.16;5024989;28;20049;-65
2022/07/08 05:30:09;;;;;;;6.88;1.60;;;13.70;99.90;;;12.90;100.00;98887.53;5023334;28;20107;-61
2022/07/08 05:32:37;;;;;;;7.22;1.35;;;13.80;99.90;;;13.07;100.00;98883.53;5024036;28;20143;-63
2022/07/08 05:35:05;;;;;;;6.72;1.23;;;14.00;99.90;;;13.11;100.00;98879.94;5004914;28;20053;-63
2022/07/08 05:37:35;;;;;;;9.30;1.50;;;14.10;99.90;;;13.01;100.00;98879.41;5027324;28;20129;-64
2022/07/08 05:40:02;;;;;;;11.30;1.73;;;14.20;99.90;;;13.16;100.00;98884.13;5010514;28;20057;-61
2022/07/08 05:42:29;;;;;;;9.32;1.80;;;14.20;99.90;;;13.01;100.00;98884.59;5026405;28;20076;-64
2022/07/08 05:44:56;;;;;;;9.70;1.40;;;14.20;99.90;;;13.13;100.00;98881.59;5028065;28;20156;-63
2022/07/08 05:47:23;;;;;;;10.30;1.70;;;14.20;99.90;;;13.18;100.00;98881.44;5026409;28;20048;-63
2022/07/08 05:49:50;;;;;;;8.38;1.45;;;14.20;99.90;;;13.22;100.00;98884.81;5026429;28;20049;-63
2022/07/08 05:52:18;;;;;;;11.40;1.75;;;14.30;99.90;;;13.35;100.00;98888.78;5026053;28;20049;-64
2022/07/08 05:54:48;;;;;;;9.40;1.15;;;14.40;99.90;;;13.52;100.00;98894.25;5030743;28;20088;-63
2022/07/08 05:57:15;;;;;;;7.60;1.40;;;14.40;99.90;;;13.58;100.00;98894.06;5012098;28;20096;-63
2022/07/08 05:59:43;;;;;;;9.27;1.75;;;14.50;99.90;;;13.53;100.00;98892.53;5011131;28;20524;-64
2022/07/08 06:02:10;;;;;;;12.27;2.17;;;14.50;99.90;;;13.60;100.00;98894.88;5011800;28;20046;-64
2022/07/08 06:04:37;;;;;;;10.68;1.95;;;14.60;99.90;;;13.57;100.00;98900.19;5028640;28;20072;-64
2022/07/08 06:07:04;;;;;;;14.55;2.35;;;14.70;99.90;;;13.56;100.00;98895.03;5028196;28;20136;-64
2022/07/08 06:09:31;;;;;;;8.48;1.45;;;14.60;99.90;;;13.72;100.00;98900.56;5026843;28;20045;-63
2022/07/08 06:11:58;;;;;;;11.23;2.08;;;14.80;99.90;;;13.71;100.00;98910.16;5028624;28;20049;-63
2022/07/08 06:14:25;;;;;;;10.35;2.00;;;14.80;99.90;;;13.81;100.00;98915.91;5030585;28;20061;-63
2022/07/08 06:16:52;;;;;;;11.35;2.10;;;14.90;99.90;;;13.92;100.00;98910.34;5027920;28;20049;-63
2022/07/08 06:19:19;;;;;;;11.38;1.75;;;15.00;99.90;;;14.13;100.00;98911.34;5028239;28;20049;-63
2022/07/08 06:21:46;;;;;;;14.20;2.55;;;15.20;99.90;;;14.09;100.00;98909.72;5011271;28;20049;-64
2022/07/08 06:24:13;;;;;;;9.48;1.85;;;15.30;99.90;;;14.08;100.00;98902.81;5028711;28;20481;-63
2022/07/08 06:26:43;;;;;;;9.38;1.67;;;15.50;99.90;;;14.25;100.00;98908.28;5010039;28;20128;-63
2022/07/08 06:29:11;;;;;;;7.97;1.75;;;15.60;99.90;;;14.43;100.00;98901.53;5023909;28;20058;-62
2022/07/08 06:31:39;;;;;;;11.38;1.55;;;15.70;99.90;;;14.41;100.00;98898.13;5021498;28;20195;-64
2022/07/08 06:34:06;;;;;;;7.78;1.73;;;15.70;99.90;;;14.40;100.00;98896.44;5024760;28;20088;-63
2022/07/08 06:36:33;;;;;;;9.35;2.05;;;15.70;99.90;;;14.47;100.00;98891.81;5025806;28;20145;-64
2022/07/08 06:39:00;;;;;;;10.20;1.70;;;15.80;99.90;;;14.95;100.00;98898.72;5026551;28;20129;-62
2022/07/08 06:41:31;;;;;;;8.82;1.80;;;16.00;99.90;;;15.31;100.00;98893.78;5023300;28;20052;-63
2022/07/08 06:43:58;;;;;;;8.52;1.73;;;16.30;99.90;;;15.41;100.00;98892.47;4991765;28;20053;-64
2022/07/08 06:46:25;;;;;;;6.07;1.48;;;16.60;99.90;;;15.67;100.00;98896.66;5026014;28;20453;-64
2022/07/08 06:48:52;;;;;;;7.93;1.70;;;16.90;99.90;;;15.75;100.00;98900.72;5028110;28;20103;-63
2022/07/08 06:51:20;;;;;;;8.32;1.35;;;17.00;99.90;;;15.52;100.00;98897.28;5026324;28;20080;-63
2022/07/08 06:56:34;;;;;;;18.67;1.60;;;16.90;99.90;;;15.58;100.00;98894.41;5025415;28;20547;-63
2022/07/08 06:59:01;;;;;;;13.73;1.80;;;17.00;99.90;;;15.38;100.00;98905.69;5010295;28;20132;-63
2022/07/08 07:01:28;;;;;;;6.93;1.02;;;16.80;99.90;;;15.06;100.00;98912.22;5027360;28;20081;-63
2022/07/08 07:03:55;;;;;;;5.85;1.13;;;16.50;99.90;;;15.46;100.00;98905.38;5026717;28;20047;-65
2022/07/08 07:06:22;;;;;;;6.38;1.10;;;16.60;99.90;;;15.31;100.00;98919.94;5022960;28;20529;-63
2022/07/08 07:08:49;;;;;;;5.28;0.98;;;16.60;99.90;;;15.42;100.00;98915.13;5009452;28;20492;-64
2022/07/08 07:11:16;;;;;;;8.60;1.00;;;16.60;99.90;;;15.57;100.00;98911.00;5026600;28;20129;-62
2022/07/08 07:13:43;;;;;;;6.65;1.50;;;16.80;99.90;;;15.31;100.00;98911.25;5026866;28;20504;-64
2022/07/08 07:16:10;;;;;;;7.82;1.30;;;16.70;99.90;;;15.31;100.00;98916.50;5019901;28;20547;-62
2022/07/08 07:18:37;;;;;;;7.65;1.10;;;16.60;99.90;;;15.30;100.00;98913.00;5022103;28;20501;-63
2022/07/08 07:21:05;;;;;;;6.90;1.00;;;16.60;99.90;;;15.25;100.00;98921.03;5026376;28;20136;-63
2022/07/08 07:23:32;;;;;;;7.90;1.20;;;16.70;99.90;;;15.84;100.00;98916.03;5022525;28;20052;-63
2022/07/08 07:25:59;;;;;;;6.07;1.00;;;16.90;99.90;;;15.55;100.00;98912.00;5014518;28;20155;-62
2022/07/08 07:28:26;;;;;;;8.65;1.25;;;16.80;99.90;;;15.22;100.00;98909.84;5026295;28;20136;-63
2022/07/08 07:30:54;;;;;;;4.47;0.70;;;16.60;99.90;;;15.34;100.00;98909.34;5024288;28;20054;-63
2022/07/08 07:33:21;;;;;;;6.15;1.20;;;16.50;99.90;;;15.26;100.00;98914.91;5027589;28;20089;-63
2022/07/08 07:35:48;;;;;;;9.23;0.95;;;16.40;99.90;;;15.43;100.00;98908.13;4995645;28;20728;-64
2022/07/08 07:38:15;;;;;;;5.32;1.13;;;16.60;99.90;;;15.75;100.00;98903.34;5026412;28;20084;-63
2022/07/08 07:40:45;;;;;;;7.03;1.02;;;16.80;99.90;;;15.84;100.00;98902.97;5022672;28;20186;-63
2022/07/08 07:43:12;;;;;;;5.90;1.10;;;16.90;99.90;;;15.97;100.00;98906.75;5008232;28;20500;-64
2022/07/08 07:45:39;;;;;;;7.72;1.13;;;17.10;99.90;;;16.38;100.00;98898.84;5026696;28;20059;-64
2022/07/08 07:48:06;;;;;;;7.70;1.00;;;17.30;99.90;;;16.01;100.00;98902.22;5010354;28;20049;-63
2022/07/08 07:50:39;;;;;;;;;;;17.30;99.90;;;16.14;100.00;98898.16;5027323;28;20049;-63
2022/07/08 07:53:06;;;;;;;5.07;1.10;;;17.30;99.90;;;16.69;100.00;98898.28;5025877;28;19932;-63
2022/07/08 07:55:32;;;;;;;6.13;0.77;;;17.50;99.90;;;16.75;100.00;98896.31;5027296;28;20088;-65
2022/07/08 07:57:59;;;;;;;12.90;1.45;;;17.70;99.90;;;15.95;100.00;98892.03;5021904;28;20144;-64
2022/07/08 08:00:26;;;;;;;5.95;1.00;;;17.40;99.90;;;16.04;100.00;98896.88;5025255;28;20152;-64
2022/07/08 08:02:55;;;;;;;5.25;1.38;;;17.20;99.90;;;16.39;100.00;98897.06;5003743;28;20050;-65
2022/07/08 08:05:22;;;;;;;4.35;1.00;;;17.30;99.90;;;16.52;100.00;98899.06;5025161;28;20072;-63
2022/07/08 08:07:49;;;;;;;5.65;1.20;;;17.60;99.90;;;16.46;100.00;98890.63;5022031;28;20063;-64
2022/07/08 08:10:16;;;;;;;8.30;1.10;;;17.60;99.90;;;16.12;100.00;98904.38;5026988;28;20067;-63
2022/07/08 08:12:43;;;;;;;6.75;1.00;;;17.60;99.90;;;15.97;100.00;98900.69;5026213;28;20139;-64
2022/07/08 08:15:10;;;;;;;11.68;1.00;;;17.40;99.90;;;16.25;100.00;98903.75;5025052;28;20050;-64
2022/07/08 08:17:39;;;;;;;7.82;1.20;;;17.50;99.90;;;16.90;100.00;98904.34;5023552;28;20046;-64
2022/07/08 08:20:10;;;;;;;7.65;1.00;;;17.70;99.90;;;17.09;100.00;98900.81;5025064;28;20132;-64
2022/07/08 08:22:38;;;;;;;7.60;1.25;;;17.90;99.90;;;16.62;100.00;98898.63;5024125;28;20095;-63
2022/07/08 08:25:25;;;;;;;7.32;1.02;;;18.20;99.90;;;17.10;100.00;98895.47;5021846;28;20041;-62
2022/07/08 08:27:52;;;;;;;8.05;1.08;;;18.40;99.90;;;17.62;100.00;98899.97;5008650;28;20103;-64
2022/07/08 08:30:20;;;;;;;4.38;0.80;;;18.60;99.90;;;17.65;100.00;98905.06;5022865;28;20521;-64
2022/07/08 08:32:47;;;;;;;4.53;1.15;;;18.70;99.90;;;17.85;100.00;98900.59;5002870;28;20613;-63
2022/07/08 08:35:14;;;;;;;7.25;0.75;;;19.00;99.90;;;17.74;100.00;98898.47;5025802;28;20124;-64
2022/07/08 08:37:41;;;;;;;6.15;1.00;;;18.90;99.90;;;17.77;100.00;98890.47;5023722;28;20060;-64
2022/07/08 08:40:10;;;;;;;6.65;0.82;;;18.70;99.90;;;17.93;100.00;98896.66;5020152;28;20156;-64
2022/07/08 08:42:40;;;;;;;7.00;1.00;;;19.10;99.90;;;18.19;100.00;98902.34;5006449;28;20084;-63
2022/07/08 08:45:09;;;;;;;4.72;0.88;;;19.30;99.90;;;18.26;100.00;98900.22;5024860;28;20753;-63
2022/07/08 08:47:37;;;;;;;4.90;0.85;;;19.40;99.90;;;17.98;100.00;98901.69;5006989;28;20050;-63
2022/07/08 08:52:56;;;;;;;5.70;1.00;;;19.70;99.90;;;17.85;100.00;98898.81;5022352;28;20123;-63
2022/07/08 08:55:29;;;;;;;6.78;0.80;;;19.60;99.90;;;18.20;100.00;98883.03;5024932;28;20125;-64
2022/07/08 08:57:59;;;;;;;5.15;0.95;;;19.60;99.90;;;17.90;100.00;98888.06;5023348;28;20082;-64
2022/07/08 09:00:28;;;;;;;4.38;0.77;;;19.80;99.90;;;18.37;100.00;98887.38;5024418;28;20085;-64
2022/07/08 09:02:56;;;;;;;5.88;0.90;;;19.80;99.90;;;18.73;100.00;98886.31;5020708;28;20069;-63
2022/07/08 09:05:25;;;;;;;4.97;0.95;;;19.90;99.90;;;18.77;100.00;98874.69;5018187;28;20547;-63
2022/07/08 09:07:53;;;;;;;8.52;0.85;;;19.90;99.90;;;19.03;100.00;98878.50;5023417;28;20049;-64
2022/07/08 09:10:21;;;;;;;4.82;0.90;;;20.20;99.90;;;19.00;100.00;98878.69;5027143;28;20079;-64
2022/07/08 09:13:10;;;;;;;5.45;1.00;;;20.40;99.90;;;19.36;100.00;98877.50;5026604;28;20121;-64
2022/07/08 09:15:40;;;;;;;4.35;0.70;;;20.70;99.90;;;19.70;100.00;98889.59;5028559;28;20053;-64
2022/07/08 09:18:25;;;;;;;6.07;0.90;;;21.00;99.80;;;19.93;100.00;98880.31;5000558;28;20199;-64
2022/07/08 09:20:55;;;;;;;6.10;0.90;;;21.30;99.50;;;20.49;100.00;98880.44;5027791;28;20084;-64
2022/07/08 09:23:29;;;;;;;5.88;0.70;;;21.40;98.90;;;20.11;100.00;98888.91;5022210;28;20072;-65
2022/07/08 09:26:02;;;;;;;3.53;0.80;;;21.10;98.10;;;19.73;100.00;98901.72;5024824;28;20072;-64
2022/07/08 09:28:32;;;;;;;6.47;0.93;;;21.00;98.20;;;19.97;100.00;98894.16;5009816;28;20042;-64
2022/07/08 09:31:07;;;;;;;6.90;0.95;;;21.10;97.50;;;20.02;100.00;98890.31;4992894;28;20053;-62
2022/07/08 09:33:35;;;;;;;5.50;0.75;;;21.30;98.00;;;19.34;100.00;98890.78;5023439;28;20057;-63
2022/07/08 09:36:04;;;;;;;5.40;0.77;;;20.90;98.00;;;18.72;100.00;98905.63;5024841;28;20125;-64
2022/07/08 09:38:36;;;;;;;5.93;0.68;;;20.20;98.00;;;18.71;100.00;98906.59;5021512;28;20133;-64
2022/07/08 09:41:09;;;;;;;6.90;0.90;;;20.10;98.20;;;19.73;100.00;98907.00;5005060;28;20144;-64
2022/07/08 09:43:50;;;;;;;5.35;0.90;;;20.10;98.40;;;20.47;100.00;98898.13;5021610;28;20199;-63
2022/07/08 09:46:19;;;;;;;4.72;0.70;;;20.80;97.70;;;21.50;100.00;98887.16;5008015;28;20115;-64
2022/07/08 09:48:47;;;;;;;6.07;1.02;;;21.40;96.80;;;22.16;100.00;98887.13;5023365;28;20049;-63
2022/07/08 09:51:17;;;;;;;6.45;1.08;;;21.70;96.40;;;20.59;100.00;98894.75;5024482;28;20708;-65
2022/07/08 09:53:44;;;;;;;6.47;0.70;;;21.80;95.70;;;20.36;100.00;98903.22;5024901;28;20141;-64
2022/07/08 09:56:11;;;;;;;4.75;0.90;;;21.40;96.00;;;20.46;100.00;98886.75;5024772;28;20080;-65
2022/07/08 09:58:38;;;;;;;4.22;0.70;;;21.30;95.70;;;21.40;100.00;98891.38;5025111;28;20152;-63
2022/07/08 10:01:06;;;;;;;5.28;0.70;;;21.60;95.80;;;22.30;100.00;98888.84;5025303;28;20259;-64
2022/07/08 10:03:35;;;;;;;4.70;0.60;;;21.90;95.20;;;22.38;100.00;98886.50;5024740;28;20054;-64
2022/07/08 10:06:03;;;;;;;3.83;0.70;;;22.20;94.00;;;22.58;100.00;98893.06;5025880;28;20081;-64
2022/07/08 10:08:30;;;;;;;5.13;0.77;;;22.50;93.80;;;21.66;100.00;98892.25;5026698;28;20365;-65
2022/07/08 10:11:00;;;;;;;7.07;0.80;;;22.40;94.20;;;22.37;100.00;98894.53;5024221;28;20085;-64
2022/07/08 10:13:28;;;;;;;3.95;0.75;;;22.50;94.10;;;23.50;100.00;98890.81;5008174;28;20811;-64
2022/07/08 10:15:57;;;;;;;5.90;0.85;;;;;;;22.60;100.00;98885.81;5009762;28;20131;-65
2022/07/08 10:18:39;;;;;;;5.13;0.68;;;22.90;92.40;;;22.30;100.00;98888.84;5026295;28;20053;-63